Time;durP1;ratioP1;P1;durP2;ratioP2;P2;SDS_P1;SDS_P2;PMS_P1;PMS_P2;Temp;Humidity;BMP_temperature;BMP_pressure;BME280_temperature;BME280_humidity;BME280_pressure;Samples;Min_cycle;Max_cycle;Signal;HPM_P1;HPM_P2
2023/08/21 00:01:58;;;;;;;7.50;5.90;;;;;;;22.55;100.00;100586.97;4999535;28;20323;-64
2023/08/21 00:04:23;;;;;;;6.37;5.30;;;;;;;22.49;100.00;100589.34;5011388;28;20195;-65
2023/08/21 00:06:48;;;;;;;6.87;5.40;;;;;;;22.45;100.00;100588.00;5010211;28;20548;-64
2023/08/21 00:09:14;;;;;;;11.40;6.23;;;;;;;22.38;100.00;100585.97;5012843;28;20190;-64
2023/08/21 00:11:39;;;;;;;6.73;5.53;;;;;;;22.40;100.00;100586.66;5015035;28;20222;-64
2023/08/21 00:14:04;;;;;;;6.50;5.33;;;;;;;22.35;100.00;100595.91;5014187;28;20569;-65
2023/08/21 00:16:30;;;;;;;8.30;6.00;;;;;;;22.30;100.00;100598.13;5011810;28;20170;-64
2023/08/21 00:18:55;;;;;;;7.60;5.90;;;;;;;22.26;100.00;100597.59;5012685;28;20228;-65
2023/08/21 00:21:20;;;;;;;6.73;5.20;;;;;;;22.20;100.00;100599.03;5012565;28;20781;-64
2023/08/21 00:23:46;;;;;;;9.27;6.53;;;;;;;22.13;100.00;100594.50;5009507;28;20171;-63
2023/08/21 00:26:12;;;;;;;9.57;6.27;;;;;;;22.11;100.00;100593.84;5011634;28;20186;-64
2023/08/21 00:28:37;;;;;;;8.53;5.90;;;;;;;22.05;100.00;100593.47;5011570;28;20635;-63
2023/08/21 00:31:03;;;;;;;9.50;5.50;;;;;;;22.01;100.00;100596.53;5008559;28;20271;-64
2023/08/21 00:33:33;;;;;;;7.47;5.73;;;;;;;22.03;100.00;100590.16;5020255;28;20233;-64
2023/08/21 00:35:59;;;;;;;10.87;6.40;;;;;;;22.00;100.00;100595.69;5011775;28;20670;-64
2023/08/21 00:38:25;;;;;;;7.60;5.63;;;;;;;22.01;100.00;100586.06;5012618;28;20187;-63
2023/08/21 00:40:51;;;;;;;6.70;6.00;;;;;;;21.97;100.00;100592.53;5009168;28;20292;-64
2023/08/21 00:43:16;;;;;;;8.13;5.97;;;;;;;22.03;100.00;100581.47;5021750;28;20202;-65
2023/08/21 00:45:44;;;;;;;7.07;5.93;;;;;;;21.96;100.00;100589.09;5011497;28;20190;-64
2023/08/21 00:48:11;;;;;;;6.97;6.37;;;;;;;21.91;100.00;100583.47;5012137;28;20182;-64
2023/08/21 00:50:37;;;;;;;7.43;5.80;;;;;;;21.88;100.00;100581.97;5006791;28;20236;-63
2023/08/21 00:53:03;;;;;;;5.83;5.23;;;;;;;21.67;100.00;100586.63;5021378;28;20220;-64
2023/08/21 00:55:29;;;;;;;9.10;6.27;;;;;;;21.61;100.00;100585.41;5011921;28;20253;-64
2023/08/21 00:57:54;;;;;;;7.27;5.93;;;;;;;21.52;100.00;100584.47;5011986;28;20241;-64
2023/08/21 01:00:20;;;;;;;8.07;6.70;;;;;;;21.63;100.00;100588.69;5004964;28;20635;-63
2023/08/21 01:02:45;;;;;;;6.87;6.27;;;;;;;21.58;100.00;100581.28;5006112;28;20200;-63
2023/08/21 01:05:11;;;;;;;7.97;6.73;;;;;;;21.54;100.00;100587.72;5002486;28;20229;-64
2023/08/21 01:07:48;;;;;;;8.33;6.70;;;;;;;21.48;100.00;100590.13;5011268;28;20536;-63
2023/08/21 01:10:25;;;;;;;8.47;6.20;;;;;;;21.45;100.00;100583.38;4990320;28;20709;-65
2023/08/21 01:13:00;;;;;;;7.93;6.77;;;;;;;21.48;100.00;100590.13;5015476;28;20199;-65
2023/08/21 01:15:26;;;;;;;6.83;6.30;;;;;;;21.56;100.00;100590.25;5008167;28;20265;-65
2023/08/21 01:17:52;;;;;;;9.43;6.63;;;;;;;21.55;100.00;100591.19;5011940;28;20746;-64
2023/08/21 01:20:18;;;;;;;6.67;6.07;;;;;;;21.54;100.00;100595.59;5003952;28;20273;-64
2023/08/21 01:22:47;;;;;;;7.10;6.37;;;;;;;21.55;100.00;100594.63;5025149;28;20278;-64
2023/08/21 01:25:12;;;;;;;9.40;6.60;;;;;;;21.55;100.00;100597.25;5011349;28;20191;-64
2023/08/21 01:27:45;;;;;;;9.33;6.53;;;;;;;21.50;100.00;100598.66;5011822;28;20713;-65
2023/08/21 01:30:10;;;;;;;8.63;6.80;;;;;;;21.49;100.00;100605.66;5002760;28;20536;-65
2023/08/21 01:32:45;;;;;;;6.70;6.07;;;;;;;21.44;100.00;100607.88;5015699;28;20183;-65
2023/08/21 01:35:12;;;;;;;6.77;6.07;;;;;;;21.45;100.00;100609.53;5010178;28;20618;-64
2023/08/21 01:37:38;;;;;;;6.53;6.03;;;;;;;21.49;100.00;100612.69;5011831;28;20195;-65
2023/08/21 01:40:04;;;;;;;9.60;6.80;;;;;;;21.50;100.00;100615.16;5002284;28;20269;-64
2023/08/21 01:42:29;;;;;;;6.40;5.90;;;;;;;21.53;100.00;100611.44;5026367;28;20220;-65
2023/08/21 01:44:54;;;;;;;8.20;6.90;;;;;;;21.55;100.00;100615.56;5011504;28;20266;-64
2023/08/21 01:47:20;;;;;;;7.43;6.70;;;;;;;21.51;100.00;100614.22;5012166;28;20186;-65
2023/08/21 01:49:45;;;;;;;7.60;6.07;;;;;;;21.55;100.00;100623.41;5011494;28;20175;-64
2023/08/21 01:52:10;;;;;;;7.57;6.37;;;;;;;21.52;100.00;100615.88;5005634;28;20226;-64
2023/08/21 01:54:36;;;;;;;6.97;6.37;;;;;;;21.54;100.00;100620.94;5010079;28;20565;-63
2023/08/21 01:57:01;;;;;;;8.40;6.40;;;;;;;21.59;100.00;100614.34;5011602;28;20178;-64
2023/08/21 01:59:26;;;;;;;7.23;6.53;;;;;;;21.59;100.00;100618.75;5011424;28;20183;-64
2023/08/21 02:01:51;;;;;;;9.40;6.80;;;;;;;21.62;100.00;100615.88;5003559;28;20218;-64
2023/08/21 02:04:17;;;;;;;7.37;6.60;;;;;;;21.59;100.00;100622.22;4998540;28;20644;-63
2023/08/21 02:06:44;;;;;;;6.60;5.83;;;;;;;21.61;100.00;100622.06;5011874;28;20233;-65
2023/08/21 02:09:09;;;;;;;9.67;6.80;;;;;;;21.63;100.00;100619.28;5011380;28;20171;-65
2023/08/21 02:11:34;;;;;;;8.63;6.50;;;;;;;21.57;100.00;100613.66;5013479;28;20221;-65
2023/08/21 02:14:00;;;;;;;8.40;6.20;;;;;;;21.65;100.00;100619.97;5014277;28;20186;-64
2023/08/21 02:16:25;;;;;;;8.53;6.43;;;;;;;21.66;100.00;100611.97;5011513;28;20217;-65
2023/08/21 02:18:50;;;;;;;7.57;6.37;;;;;;;21.67;100.00;100621.50;5011455;28;20178;-64
2023/08/21 02:21:15;;;;;;;6.90;6.30;;;;;;;21.64;100.00;100615.72;5010888;28;20651;-64
2023/08/21 02:23:41;;;;;;;8.80;6.63;;;;;;;21.67;100.00;100613.63;5003903;28;20634;-64
2023/08/21 02:26:06;;;;;;;6.97;6.33;;;;;;;21.63;100.00;100616.69;5002946;28;20322;-64
2023/08/21 02:28:31;;;;;;;7.07;5.87;;;;;;;21.64;100.00;100615.72;5011615;28;20194;-63
2023/08/21 02:30:57;;;;;;;7.10;6.40;;;;;;;21.67;100.00;100618.03;5012393;28;20226;-64
2023/08/21 02:33:22;;;;;;;10.17;6.87;;;;;;;21.67;100.00;100626.72;5023047;28;20187;-63
2023/08/21 02:35:47;;;;;;;9.07;6.20;;;;;;;21.66;100.00;100611.97;5014320;28;20583;-64
2023/08/21 02:38:12;;;;;;;9.20;7.07;;;;;;;21.63;100.00;100616.69;5014708;28;20198;-64
2023/08/21 02:40:38;;;;;;;7.10;6.40;;;;;;;21.62;100.00;100621.09;5009642;28;20225;-65
2023/08/21 02:43:04;;;;;;;7.47;6.77;;;;;;;21.63;100.00;100612.25;5025060;28;20618;-65
2023/08/21 02:45:30;;;;;;;9.07;7.13;;;;;;;21.61;100.00;100622.06;5014366;28;20639;-66
2023/08/21 02:47:55;;;;;;;8.20;6.90;;;;;;;21.60;100.00;100620.41;5014563;28;20236;-64
2023/08/21 02:50:20;;;;;;;7.27;6.63;;;;;;;21.56;100.00;100621.66;5005375;28;20267;-64
2023/08/21 02:52:46;;;;;;;7.37;6.70;;;;;;;21.50;100.00;100622.22;5026904;28;20225;-65
2023/08/21 02:55:11;;;;;;;9.13;7.03;;;;;;;21.46;100.00;100619.03;5014020;28;20203;-64
2023/08/21 02:57:36;;;;;;;9.10;7.33;;;;;;;21.39;100.00;100621.38;5012851;28;20550;-64
2023/08/21 03:00:02;;;;;;;7.77;6.93;;;;;;;21.37;100.00;100620.72;5014661;28;20234;-64
2023/08/21 03:02:28;;;;;;;7.77;6.97;;;;;;;21.36;100.00;100618.22;5021895;28;20312;-64
2023/08/21 03:04:53;;;;;;;8.10;7.30;;;;;;;21.31;100.00;100621.28;5033907;28;20209;-65
2023/08/21 03:07:18;;;;;;;8.37;7.23;;;;;;;21.27;100.00;100617.28;5034187;28;20597;-64
2023/08/21 03:09:46;;;;;;;7.80;7.00;;;;;;;21.25;100.00;100617.44;5034036;28;20181;-65
2023/08/21 03:12:12;;;;;;;8.77;7.90;;;;;;;21.16;100.00;100614.84;5021713;28;20226;-64
2023/08/21 03:14:37;;;;;;;8.80;6.90;;;;;;;21.14;100.00;100616.78;5004164;28;20295;-64
2023/08/21 03:17:03;;;;;;;15.07;7.73;;;;;;;21.09;100.00;100614.56;5014048;28;20186;-64
2023/08/21 03:19:28;;;;;;;7.97;7.23;;;;;;;21.02;100.00;100618.72;5014226;28;20239;-65
2023/08/21 03:21:53;;;;;;;9.23;7.10;;;;;;;20.98;100.00;100614.72;5017275;28;20237;-64
2023/08/21 03:24:18;;;;;;;8.13;7.43;;;;;;;20.94;100.00;100620.22;5014664;28;20698;-63
2023/08/21 03:26:44;;;;;;;11.50;7.60;;;;;;;20.91;100.00;100628.38;5013509;28;20182;-64
2023/08/21 03:29:10;;;;;;;8.30;7.50;;;;;;;20.88;100.00;100619.97;5014047;28;20634;-64
2023/08/21 03:31:35;;;;;;;9.47;8.50;;;;;;;20.83;100.00;100625.59;5008063;28;20708;-64
2023/08/21 03:34:00;;;;;;;8.40;7.57;;;;;;;20.77;100.00;100629.56;5021640;28;20187;-65
2023/08/21 03:36:32;;;;;;;10.60;7.80;;;;;;;20.72;100.00;100625.75;5013152;28;20261;-66
2023/08/21 03:38:58;;;;;;;11.37;7.80;;;;;;;20.66;100.00;100627.06;5013911;28;20182;-65
2023/08/21 03:41:23;;;;;;;10.90;8.70;;;;;;;20.61;100.00;100624.84;5020874;28;20233;-65
2023/08/21 03:43:48;;;;;;;8.50;7.60;;;;;;;20.60;100.00;100620.63;5029590;28;20223;-66
2023/08/21 03:46:14;;;;;;;13.07;8.00;;;;;;;20.54;100.00;100622.94;5033164;28;20178;-65
2023/08/21 03:48:39;;;;;;;8.80;7.90;;;;;;;20.50;100.00;100619.75;5033432;28;20561;-65
2023/08/21 03:51:04;;;;;;;9.73;8.73;;;;;;;20.51;100.00;100623.22;5022273;28;20221;-65
2023/08/21 03:53:29;;;;;;;9.03;8.13;;;;;;;20.51;100.00;100628.44;5020607;28;20182;-66
2023/08/21 03:55:55;;;;;;;10.60;8.87;;;;;;;20.41;100.00;100629.25;5012283;28;20194;-64
2023/08/21 03:58:20;;;;;;;10.27;9.20;;;;;;;20.42;100.00;100630.91;5013639;28;20205;-65
2023/08/21 04:00:45;;;;;;;9.00;8.17;;;;;;;20.36;100.00;100628.00;5008672;28;20293;-65
2023/08/21 04:03:11;;;;;;;9.33;8.33;;;;;;;20.39;100.00;100632.94;5022834;28;20262;-65
2023/08/21 04:05:37;;;;;;;9.67;8.63;;;;;;;20.34;100.00;100625.50;5012553;28;20222;-65
2023/08/21 04:08:02;;;;;;;10.40;9.40;;;;;;;20.33;100.00;100639.56;5013219;28;20191;-65
2023/08/21 04:10:27;;;;;;;10.70;8.87;;;;;;;20.28;100.00;100637.34;5005817;28;20299;-65
2023/08/21 04:12:53;;;;;;;8.73;7.93;;;;;;;20.19;100.00;100635.50;5025004;28;20187;-65
2023/08/21 04:15:18;;;;;;;10.77;8.83;;;;;;;20.21;100.00;100636.22;5012695;28;20206;-64
2023/08/21 04:17:43;;;;;;;9.83;8.90;;;;;;;20.13;100.00;100639.50;5012979;28;20186;-65
2023/08/21 04:20:09;;;;;;;9.70;8.90;;;;;;;20.19;100.00;100639.91;5004245;28;20187;-64
2023/08/21 04:22:34;;;;;;;10.00;9.20;;;;;;;20.19;100.00;100645.16;5046737;28;20233;-64
2023/08/21 04:25:00;;;;;;;10.97;9.90;;;;;;;20.24;100.00;100637.72;5031662;28;20194;-58
2023/08/21 04:27:25;;;;;;;11.63;10.43;;;;;;;20.30;100.00;100642.41;5029850;28;20463;-58
2023/08/21 04:29:51;;;;;;;11.57;10.37;;;;;;;20.32;100.00;100638.72;5032344;28;20181;-56
2023/08/21 04:32:16;;;;;;;10.77;9.77;;;;;;;20.34;100.00;100646.41;5017876;28;20326;-56
2023/08/21 04:34:42;;;;;;;11.57;10.57;;;;;;;20.42;100.00;100654.41;5011947;28;20197;-56
2023/08/21 04:37:07;;;;;;;13.13;10.23;;;;;;;20.36;100.00;100643.69;5012613;28;20174;-56
2023/08/21 04:39:32;;;;;;;11.57;10.47;;;;;;;20.40;100.00;100653.72;5012266;28;20638;-56
2023/08/21 04:41:58;;;;;;;11.57;10.53;;;;;;;20.46;100.00;100645.34;5027822;28;20336;-56
2023/08/21 04:44:23;;;;;;;13.17;10.93;;;;;;;20.48;100.00;100651.25;5032401;28;20189;-56
2023/08/21 04:46:51;;;;;;;11.37;10.20;;;;;;;20.50;100.00;100651.13;5032172;28;20185;-55
2023/08/21 04:49:17;;;;;;;12.90;10.27;;;;;;;20.54;100.00;100646.44;5031082;28;20594;-56
2023/08/21 04:51:42;;;;;;;14.47;10.43;;;;;;;20.60;100.00;100648.53;5016034;28;20372;-56
2023/08/21 04:54:08;;;;;;;11.67;10.67;;;;;;;20.58;100.00;100648.66;5014148;28;20257;-56
2023/08/21 04:56:33;;;;;;;11.37;10.13;;;;;;;20.59;100.00;100642.47;5012139;28;20219;-56
2023/08/21 04:58:58;;;;;;;11.57;10.43;;;;;;;20.71;100.00;100648.44;5012124;28;20546;-55
2023/08/21 05:01:24;;;;;;;11.53;10.00;;;;;;;20.80;100.00;100645.00;5012278;28;20226;-56
2023/08/21 05:03:50;;;;;;;13.07;10.57;;;;;;;20.75;100.00;100651.59;5016661;28;20675;-57
2023/08/21 05:06:15;;;;;;;11.17;10.07;;;;;;;20.79;100.00;100653.81;5011590;28;20214;-57
2023/08/21 05:08:40;;;;;;;13.23;10.13;;;;;;;20.90;100.00;100654.63;5011751;28;20244;-56
2023/08/21 05:11:06;;;;;;;11.00;9.67;;;;;;;21.00;100.00;100660.69;5017976;28;20228;-56
2023/08/21 05:13:31;;;;;;;16.77;10.37;;;;;;;21.13;100.00;100652.56;5038774;28;20186;-56
2023/08/21 05:15:57;;;;;;;10.53;9.50;;;;;;;21.39;100.00;100650.19;5031024;28;20196;-56
2023/08/21 05:18:24;;;;;;;11.60;10.40;;;;;;;21.45;100.00;100654.03;5031582;28;20263;-57
2023/08/21 05:20:50;;;;;;;11.30;10.10;;;;;;;21.51;100.00;100658.69;5016849;28;20650;-57
2023/08/21 05:23:16;;;;;;;10.90;9.67;;;;;;;21.64;100.00;100668.88;5020021;28;20182;-57
2023/08/21 05:25:42;;;;;;;11.30;9.50;;;;;;;21.75;100.00;100667.91;5010986;28;20183;-57
2023/08/21 05:28:08;;;;;;;10.83;9.17;;;;;;;21.83;100.00;100677.66;5010825;28;20217;-57
2023/08/21 05:30:35;;;;;;;11.97;8.83;;;;;;;21.98;100.00;100675.38;5009585;28;20225;-57
2023/08/21 05:33:01;;;;;;;12.17;8.67;;;;;;;22.02;100.00;100680.19;5041132;28;20622;-57
2023/08/21 05:35:26;;;;;;;12.63;9.73;;;;;;;22.20;100.00;100682.03;5030947;28;20224;-56
2023/08/21 05:37:51;;;;;;;10.33;9.03;;;;;;;22.31;100.00;100679.22;5030871;28;20221;-57
2023/08/21 05:40:16;;;;;;;9.90;8.87;;;;;;;22.52;100.00;100675.56;5016693;28;20186;-56
2023/08/21 05:42:42;;;;;;;11.50;9.90;;;;;;;22.58;100.00;100679.41;5044759;28;20293;-56
2023/08/21 05:45:07;;;;;;;10.10;9.03;;;;;;;22.50;100.00;100680.97;5030847;28;20250;-56
2023/08/21 05:47:32;;;;;;;10.17;8.57;;;;;;;22.47;100.00;100683.84;5031161;28;20182;-57
2023/08/21 05:49:58;;;;;;;9.80;9.00;;;;;;;22.43;100.00;100676.47;5029757;28;20186;-57
2023/08/21 05:52:23;;;;;;;11.20;9.70;;;;;;;22.35;100.00;100677.13;5035768;28;20295;-57
2023/08/21 05:54:49;;;;;;;9.80;8.90;;;;;;;22.36;100.00;100674.38;5030304;28;20547;-57
2023/08/21 05:57:15;;;;;;;10.60;9.60;;;;;;;22.37;100.00;100680.44;5031250;28;20181;-56
2023/08/21 05:59:47;;;;;;;10.57;9.73;;;;;;;22.29;100.00;100680.34;5031136;28;20190;-58
2023/08/21 06:02:15;;;;;;;10.30;9.23;;;;;;;22.25;100.00;100688.50;5039083;28;20229;-57
2023/08/21 06:04:41;;;;;;;10.77;9.20;;;;;;;22.32;100.00;100683.50;5032963;28;20219;-57
2023/08/21 06:07:07;;;;;;;11.27;9.13;;;;;;;22.27;100.00;100683.13;5034512;28;20185;-57
2023/08/21 06:09:33;;;;;;;8.90;8.20;;;;;;;22.43;100.00;100690.38;5035022;28;20325;-57
2023/08/21 06:12:01;;;;;;;10.57;9.10;;;;;;;22.45;100.00;100692.84;5017487;28;20230;-57
2023/08/21 06:14:28;;;;;;;12.57;9.33;;;;;;;22.56;100.00;100690.84;5011463;28;20186;-64
2023/08/21 06:17:01;;;;;;;9.27;8.33;;;;;;;22.66;100.00;100687.31;5012356;28;20551;-67
2023/08/21 06:19:27;;;;;;;9.60;8.77;;;;;;;22.69;100.00;100689.66;5014584;28;20182;-69
2023/08/21 06:21:54;;;;;;;10.43;8.77;;;;;;;22.77;100.00;100687.09;5024016;28;20247;-68
2023/08/21 06:24:20;;;;;;;11.27;9.67;;;;;;;22.92;100.00;100690.03;5035880;28;20261;-68
2023/08/21 06:26:45;;;;;;;10.70;9.20;;;;;;;22.93;100.00;100689.06;5030770;28;20702;-67
2023/08/21 06:29:10;;;;;;;10.80;9.40;;;;;;;;;;5028740;28;20726;-67
2023/08/21 06:31:35;;;;;;;10.30;9.00;;;;;;;23.03;100.00;100686.34;5013650;28;20316;-67
2023/08/21 06:34:00;;;;;;;10.10;9.00;;;;;;;23.15;100.00;100687.78;5016550;28;20189;-66
2023/08/21 06:36:26;;;;;;;10.67;9.67;;;;;;;23.22;100.00;100688.03;5014205;28;20178;-68
2023/08/21 06:38:51;;;;;;;10.33;8.87;;;;;;;23.30;100.00;100685.44;5014812;28;20576;-68
2023/08/21 06:41:16;;;;;;;13.00;9.67;;;;;;;23.58;100.00;100687.97;5002537;28;20226;-68
2023/08/21 06:43:41;;;;;;;10.13;9.13;;;;;;;23.92;100.00;100686.38;5011084;28;20232;-68
2023/08/21 06:46:07;;;;;;;10.55;9.38;;;;;;;24.11;100.00;100675.63;5003703;28;20186;-68
2023/08/21 06:48:35;;;;;;;10.95;8.90;;;;;;;25.02;100.00;100685.50;5014273;28;20328;-68
2023/08/21 06:51:02;;;;;;;9.85;8.45;;;;;;;25.91;100.00;100688.19;4985089;28;20563;-68
2023/08/21 06:53:27;;;;;;;8.10;6.90;;;;;;;27.94;100.00;100681.72;5013819;28;20629;-68
2023/08/21 06:55:53;;;;;;;11.50;7.68;;;;;;;29.24;100.00;100684.50;5008255;28;20206;-68
2023/08/21 06:58:18;;;;;;;10.98;7.65;;;;;;;30.19;99.34;100692.00;5015854;28;20229;-69
2023/08/21 07:00:43;;;;;;;7.20;6.50;;;;;;;30.40;98.25;100693.69;5014277;28;20240;-71
2023/08/21 07:03:09;;;;;;;7.45;6.75;;;;;;;30.71;95.62;100696.81;5019461;28;20213;-70
2023/08/21 07:05:34;;;;;;;8.68;6.72;;;;;;;31.45;90.76;100689.66;5033355;28;20192;-65
2023/08/21 07:07:59;;;;;;;8.32;6.55;;;;;;;32.81;83.71;100692.34;5033520;28;20505;-65
2023/08/21 07:10:25;;;;;;;8.23;6.55;;;;;;;33.55;73.56;100693.53;5022624;28;20233;-65
2023/08/21 07:12:51;;;;;;;6.85;6.15;;;;;;;34.83;65.89;100698.00;5025153;28;20229;-64
2023/08/21 07:15:16;;;;;;;9.57;6.45;;;;;;;34.89;66.83;100705.13;5013409;28;20245;-65
2023/08/21 07:17:41;;;;;;;6.78;5.75;;;;;;;35.78;57.76;100701.44;5013345;28;20175;-65
2023/08/21 07:20:07;;;;;;;6.95;6.00;;;;;;;37.73;48.25;100704.84;5003594;28;20606;-65
2023/08/21 07:22:32;;;;;;;6.60;6.00;;;;;;;38.49;43.25;100712.09;5011641;28;20705;-65
2023/08/21 07:25:00;;;;;;;7.15;5.40;;;;;;;38.08;44.73;100709.00;5008403;28;20222;-65
2023/08/21 07:27:25;;;;;;;8.45;5.72;;;;;;;36.05;53.56;100705.44;5002809;28;20705;-65
2023/08/21 07:29:51;;;;;;;11.32;5.60;;;;;;;36.73;51.42;100702.88;5011977;28;20190;-64
2023/08/21 07:32:16;;;;;;;6.03;5.00;;;;;;;37.68;47.87;100702.09;4998371;28;20221;-65
2023/08/21 07:34:41;;;;;;;9.57;5.70;;;;;;;38.50;45.00;100702.94;5013221;28;20187;-65
2023/08/21 07:37:08;;;;;;;7.93;5.88;;;;;;;38.64;42.95;100707.91;5012260;28;20175;-64
2023/08/21 07:39:34;;;;;;;6.45;5.78;;;;;;;38.79;43.62;100702.69;5014061;28;20186;-66
2023/08/21 07:41:59;;;;;;;9.82;5.78;;;;;;;39.03;42.04;100707.66;4988940;28;20252;-66
2023/08/21 07:44:24;;;;;;;9.68;6.22;;;;;;;38.87;41.89;100704.88;5012136;28;20182;-66
2023/08/21 07:46:50;;;;;;;5.90;5.25;;;;;;;38.89;40.57;100702.75;5013448;28;20187;-65
2023/08/21 07:49:15;;;;;;;8.25;4.85;;;;;;;38.84;42.66;100701.88;5013471;28;20183;-64
2023/08/21 07:51:40;;;;;;;9.93;5.50;;;;;;;40.48;37.95;100701.69;5015595;28;20295;-65
2023/08/21 07:54:05;;;;;;;5.95;5.30;;;;;;;41.32;36.02;100710.47;5015149;28;20285;-64
2023/08/21 07:56:31;;;;;;;6.50;5.03;;;;;;;41.11;36.22;100707.81;5013483;28;20218;-66
2023/08/21 07:58:56;;;;;;;13.75;5.40;;;;;;;41.81;34.39;100709.72;5013120;28;20182;-64
2023/08/21 08:01:22;;;;;;;5.82;5.32;;;;;;;37.89;42.38;100703.16;5013241;28;20221;-64
2023/08/21 08:03:47;;;;;;;5.82;4.68;;;;;;;38.54;45.03;100696.03;5018078;28;20182;-67
2023/08/21 08:06:12;;;;;;;8.35;5.15;;;;;;;38.79;40.76;100702.69;5012787;28;20195;-64
2023/08/21 08:08:38;;;;;;;7.85;5.28;;;;;;;39.21;40.04;100703.75;5013162;28;20210;-65
2023/08/21 08:11:04;;;;;;;8.18;5.43;;;;;;;40.46;36.71;100703.03;5004596;28;20237;-65
2023/08/21 08:13:29;;;;;;;7.85;5.32;;;;;;;40.67;35.44;100703.84;5020851;28;20214;-64
2023/08/21 08:15:54;;;;;;;6.65;5.43;;;;;;;39.55;38.48;100714.94;5011134;28;20202;-65
2023/08/21 08:18:20;;;;;;;6.90;5.32;;;;;;;39.75;39.48;100707.22;5013051;28;20225;-64
2023/08/21 08:20:45;;;;;;;7.93;4.95;;;;;;;39.98;37.15;100712.13;5007682;28;20237;-66
2023/08/21 08:23:11;;;;;;;6.20;5.38;;;;;;;40.30;38.48;100703.03;5023048;28;20650;-64
2023/08/21 08:25:36;;;;;;;13.65;5.35;;;;;;;39.44;38.98;100705.19;5012311;28;20175;-66
2023/08/21 08:28:02;;;;;;;9.32;5.65;;;;;;;37.84;42.28;100698.53;5013022;28;20182;-66
2023/08/21 08:30:27;;;;;;;10.60;6.30;;;;;;;38.58;41.28;100699.00;5005431;28;20233;-65
2023/08/21 08:32:53;;;;;;;8.30;5.82;;;;;;;37.84;43.81;100698.53;5024828;28;20210;-66
2023/08/21 08:35:18;;;;;;;10.23;5.55;;;;;;;38.39;41.95;100699.41;5012701;28;20194;-63
2023/08/21 08:37:44;;;;;;;6.55;5.25;;;;;;;39.14;39.15;100703.16;5012749;28;20194;-64
2023/08/21 08:40:10;;;;;;;6.20;5.60;;;;;;;40.03;36.86;100706.75;5003682;28;20187;-64
2023/08/21 08:42:36;;;;;;;5.95;5.43;;;;;;;40.55;36.87;100698.75;5026950;28;20225;-65
2023/08/21 08:45:03;;;;;;;6.35;5.38;;;;;;;40.95;36.09;100704.34;5012355;28;20630;-65
2023/08/21 08:47:31;;;;;;;7.45;5.70;;;;;;;41.43;35.08;100698.56;5012574;28;20183;-65
2023/08/21 08:49:58;;;;;;;6.15;5.25;;;;;;;41.94;34.44;100700.19;5010831;28;20351;-64
2023/08/21 08:52:26;;;;;;;8.52;5.63;;;;;;;40.70;34.96;100694.41;5018098;28;20235;-65
2023/08/21 08:54:54;;;;;;;9.32;5.45;;;;;;;40.03;36.99;100700.56;5012171;28;20202;-65
2023/08/21 08:57:19;;;;;;;9.68;5.47;;;;;;;40.54;35.93;100691.72;5012058;28;20186;-65
2023/08/21 08:59:45;;;;;;;7.28;5.15;;;;;;;41.24;35.22;100696.44;5012186;28;20321;-66
2023/08/21 09:02:10;;;;;;;7.88;5.38;;;;;;;41.63;33.06;100694.94;5018070;28;20230;-64
2023/08/21 09:04:37;;;;;;;7.00;5.28;;;;;;;40.72;35.40;100684.97;5012125;28;20321;-67
2023/08/21 09:07:12;;;;;;;9.93;5.63;;;;;;;40.84;34.76;100690.06;5012398;28;20210;-65
2023/08/21 09:09:44;;;;;;;8.48;4.75;;;;;;;42.23;33.13;100689.44;5027420;28;20291;-64
2023/08/21 09:12:12;;;;;;;8.27;5.00;;;;;;;42.66;31.73;100685.28;5018372;28;20766;-64
2023/08/21 09:14:39;;;;;;;6.95;4.88;;;;;;;42.91;31.39;100684.25;5011434;28;20178;-65
2023/08/21 09:17:05;;;;;;;6.60;5.15;;;;;;;43.68;30.22;100698.78;5012227;28;20190;-65
2023/08/21 09:19:30;;;;;;;6.38;4.68;;;;;;;43.19;30.08;100693.44;5012273;28;20224;-65
2023/08/21 09:21:55;;;;;;;9.38;4.93;;;;;;;43.67;29.72;100689.84;5015518;28;20233;-64
2023/08/21 09:24:20;;;;;;;8.15;4.57;;;;;;;43.76;29.76;100689.97;5012704;28;21366;-65
2023/08/21 09:26:47;;;;;;;7.90;4.97;;;;;;;42.69;31.02;100676.63;5009881;28;20190;-65
2023/08/21 09:29:12;;;;;;;6.90;5.32;;;;;;;41.55;34.86;100677.44;5011975;28;20256;-66
2023/08/21 09:31:37;;;;;;;7.15;5.35;;;;;;;41.62;34.61;100666.34;5013275;28;20307;-65
2023/08/21 09:34:07;;;;;;;5.88;4.65;;;;;;;42.31;32.86;100677.22;5009875;28;20193;-65
2023/08/21 09:36:33;;;;;;;8.73;5.15;;;;;;;43.07;32.29;100679.50;5011232;28;20316;-65
2023/08/21 09:39:00;;;;;;;9.07;5.68;;;;;;;42.10;32.57;100674.69;5011938;28;20232;-65
2023/08/21 09:41:25;;;;;;;6.15;4.97;;;;;;;42.05;32.74;100674.75;5012873;28;20588;-66
2023/08/21 09:43:51;;;;;;;5.28;4.43;;;;;;;41.82;33.25;100676.22;5016488;28;20186;-64
2023/08/21 09:46:27;;;;;;;6.05;4.18;;;;;;;41.88;30.43;100677.81;5011347;28;20186;-64
2023/08/21 09:48:53;;;;;;;4.07;3.60;;;;;;;43.24;29.31;100676.31;5011857;28;20186;-65
2023/08/21 09:51:18;;;;;;;4.22;3.67;;;;;;;42.84;29.85;100671.06;5011354;28;20228;-65
2023/08/21 09:53:44;;;;;;;5.28;3.83;;;;;;;43.19;29.45;100674.50;5017200;28;20190;-65
2023/08/21 09:56:10;;;;;;;3.83;3.40;;;;;;;42.21;30.77;100664.63;5010980;28;20279;-65
2023/08/21 09:58:36;;;;;;;4.00;3.60;;;;;;;42.14;31.74;100676.81;5011519;28;20204;-65
2023/08/21 10:01:10;;;;;;;4.93;3.97;;;;;;;41.72;31.88;100668.19;5009223;28;20233;-65
2023/08/21 10:03:38;;;;;;;4.07;3.40;;;;;;;42.73;30.98;100677.69;5018444;28;20181;-66
2023/08/21 10:06:06;;;;;;;5.07;3.90;;;;;;;42.32;31.40;100669.94;5011263;28;20204;-65
2023/08/21 10:08:35;;;;;;;6.40;4.60;;;;;;;41.14;32.17;100662.22;5011495;28;20189;-66
2023/08/21 10:11:00;;;;;;;9.73;4.30;;;;;;;41.74;35.48;100658.72;5008861;28;20228;-66
2023/08/21 10:13:26;;;;;;;5.93;4.80;;;;;;;41.79;33.06;100660.56;5019334;28;20514;-66
2023/08/21 10:15:52;;;;;;;7.15;4.50;;;;;;;41.65;34.40;100663.09;5011045;28;20181;-66
2023/08/21 10:18:29;;;;;;;6.78;4.88;;;;;;;42.08;33.12;100662.56;5011458;28;20187;-64
2023/08/21 10:20:54;;;;;;;7.05;4.32;;;;;;;38.98;36.95;100662.72;5003809;28;20281;-65
2023/08/21 10:23:31;;;;;;;9.20;5.30;;;;;;;38.59;37.92;100661.13;5018747;28;20206;-64
2023/08/21 10:26:01;;;;;;;7.30;4.53;;;;;;;40.67;37.14;100658.00;5006245;28;20190;-65
2023/08/21 10:28:55;;;;;;;7.05;4.40;;;;;;;39.09;37.64;100655.53;5008251;28;20639;-66
2023/08/21 10:31:38;;;;;;;7.55;4.07;;;;;;;38.54;39.93;100653.03;5004805;28;20230;-65
2023/08/21 10:34:08;;;;;;;4.90;4.40;;;;;;;38.09;41.21;100647.00;5014232;28;20182;-64
2023/08/21 10:36:42;;;;;;;4.55;4.07;;;;;;;39.12;37.12;100656.88;5011178;28;20197;-64
2023/08/21 10:39:14;;;;;;;5.55;5.05;;;;;;;40.20;35.07;100646.44;5010995;28;20185;-64
2023/08/21 10:41:41;;;;;;;6.55;4.28;;;;;;;40.44;34.73;100641.31;5012857;28;20308;-67
2023/08/21 10:44:06;;;;;;;5.05;4.55;;;;;;;36.80;47.28;100633.84;5013653;28;20179;-67
2023/08/21 10:46:51;;;;;;;5.80;4.32;;;;;;;33.24;67.63;100621.41;5010822;28;20185;-66
2023/08/21 10:49:16;;;;;;;8.10;4.50;;;;;;;32.58;75.32;100625.50;5014650;28;20183;-63
2023/08/21 10:51:43;;;;;;;5.38;4.55;;;;;;;32.30;83.89;100616.06;5016751;28;20225;-66
2023/08/21 10:54:13;;;;;;;6.53;4.57;;;;;;;32.81;82.57;100606.31;5016490;28;20201;-66
2023/08/21 10:56:38;;;;;;;6.47;5.13;;;;;;;32.36;81.30;100620.53;5014641;28;20190;-65
2023/08/21 10:59:04;;;;;;;6.40;5.18;;;;;;;32.73;86.14;100609.19;5014483;28;20191;-65
2023/08/21 11:01:44;;;;;;;5.70;4.43;;;;;;;32.78;84.17;100609.38;5015473;28;20614;-66
2023/08/21 11:04:10;;;;;;;4.80;4.30;;;;;;;32.48;78.59;100615.34;5016791;28;20277;-66
2023/08/21 11:06:36;;;;;;;9.27;5.00;;;;;;;32.19;80.55;100598.94;5014344;28;20278;-65
2023/08/21 11:09:03;;;;;;;5.93;4.85;;;;;;;31.86;80.94;100605.25;5013985;28;20274;-65
2023/08/21 11:11:29;;;;;;;8.50;4.72;;;;;;;31.51;80.86;100603.75;5014888;28;20230;-65
2023/08/21 11:13:54;;;;;;;4.40;4.00;;;;;;;31.43;82.44;100601.31;5018199;28;20220;-66